Ital Oriente — A8LN2 — position and weather

sailwx.info

Track history (hours):
 
Tides and Currents Weather Stations Pressure Air Temp Water Temp Dewpoint Dewpoint Depression Visibility Wind Speed Wind Dir Waves Ship Positions

Ital Oriente

Last reported at 2016-May-24 08:33 UTC. Time now 2016-May-26 14:32 UTC.
Position N 40°36' E 022°56'.

Length 222 m; draft 8.1 m.

Type: Cargo ship. MMSI: 636091278.

Date/timePositionNaut miles runAvg speedWind from/ knotsBaromVisibWave heightAir tempDewpointWater temp
2016-May-24 08:33N 40°36' E 022°56'1 1.3
2016-May-24 07:33N 40°35' E 022°55'1010.3
2016-May-24 06:34N 40°27' E 022°47'916.1
2016-May-24 06:00N 40°18' E 022°48'818.3 320 / 101010.0 5.4 0.519.017.5
2016-May-24 05:33N 40°15' E 022°58'3917.8
2016-May-24 03:21N 39°52' E 023°39'1519.1
2016-May-24 02:33N 39°51' E 023°59'2418.7
2016-May-24 01:15N 39°48' E 024°30'1318.5
2016-May-24 00:34N 39°46' E 024°47'189 5.9
2016-May-22 16:21N 40°53' E 028°39'25314.8
2016-May-21 23:13N 37°59' E 024°40'1219.0
2016-May-21 22:34N 37°51' E 024°28'1918.4
2016-May-21 21:33N 37°38' E 024°11'1616.7
2016-May-21 20:34N 37°37' E 023°50'1717.3
2016-May-21 19:33N 37°51' E 023°36'7 6.8
2016-May-21 18:33N 37°57' E 023°35'0 0.0
2016-May-21 17:33N 37°57' E 023°35'0 0.0
2016-May-21 16:33N 37°57' E 023°35'0 0.0
2016-May-21 15:33N 37°57' E 023°35'0 0.0
2016-May-21 14:33N 37°57' E 023°35'0 0.0
2016-May-21 13:33N 37°57' E 023°35'0 0.0
2016-May-21 12:33N 37°57' E 023°35'0 0.0
2016-May-21 11:33N 37°57' E 023°35'0 0.0
2016-May-21 10:33N 37°57' E 023°35'0 0.0
2016-May-21 09:33N 37°57' E 023°35'0 0.0
2016-May-21 08:33N 37°57' E 023°35'0 0.0
2016-May-21 07:33N 37°57' E 023°35'0 0.0
2016-May-21 06:33N 37°57' E 023°35'0 0.0
2016-May-21 05:33N 37°57' E 023°35'0 0.0
2016-May-21 04:33N 37°57' E 023°35'0 0.0
2016-May-21 03:33N 37°57' E 023°35'0 0.0
2016-May-21 02:33N 37°57' E 023°35'0 0.0
2016-May-21 01:33N 37°57' E 023°35'0 0.0
2016-May-21 00:33N 37°57' E 023°35'0 0.0
2016-May-20 23:33N 37°57' E 023°35'0 0.0
2016-May-20 22:33N 37°57' E 023°35'0 0.0
2016-May-20 21:33N 37°57' E 023°35'0 0.0
2016-May-20 20:33N 37°57' E 023°35'0 0.1
2016-May-20 19:34N 37°57' E 023°35'7 7.3
2016-May-20 18:33N 37°51' E 023°40'915.9
2016-May-20 18:00N 37°42' E 023°42'817.4 160 / 151013.0 5.4 1.020.316.919.2
2016-May-20 17:33N 37°38' E 023°50'1915.7
2016-May-20 16:21N 37°41' E 024°14'1519.5
2016-May-20 15:33N 37°51' E 024°29'5615.7
2016-May-20 12:00N 38°42' E 024°00'12319.1 100 / 81014.0 2.2 20.515.819.2
2016-May-20 05:33N 40°32' E 022°50'7 6.2
2016-May-20 04:26N 40°38' E 022°54'0 0.0
2016-May-20 03:26N 40°38' E 022°54'0 0.0
2016-May-20 02:26N 40°38' E 022°54'0 0.0
2016-May-20 01:29N 40°38' E 022°54'0 0.0
2016-May-20 00:29N 40°38' E 022°54'0 0.0
2016-May-19 23:29N 40°38' E 022°54'0 0.0
2016-May-19 22:32N 40°38' E 022°54'0 0.0
2016-May-19 21:32N 40°38' E 022°54'0 0.0
2016-May-19 20:32N 40°38' E 022°54'0 0.0
2016-May-19 19:32N 40°38' E 022°54'0 0.0
2016-May-19 18:32N 40°38' E 022°54'0 0.0
2016-May-19 17:32N 40°38' E 022°54'0 0.0
2016-May-19 16:32N 40°38' E 022°54'0 0.0
2016-May-19 15:23N 40°38' E 022°54'0 0.0
2016-May-19 14:20N 40°38' E 022°54'0 0.0
2016-May-19 13:26N 40°38' E 022°54'0 0.0
2016-May-19 12:26N 40°38' E 022°54'0 0.0
2016-May-19 11:29N 40°38' E 022°54'0 0.0
2016-May-19 10:29N 40°38' E 022°54'0 0.0
2016-May-19 09:29N 40°38' E 022°54'0 0.0
2016-May-19 08:32N 40°38' E 022°54'0 0.0
2016-May-19 07:32N 40°38' E 022°54'0 0.0
2016-May-19 06:32N 40°38' E 022°54'0 0.3
2016-May-19 05:32N 40°38' E 022°54'1 1.5
2016-May-19 04:33N 40°37' E 022°55'3 3.4
2016-May-19 03:33N 40°34' E 022°53'1110.7
2016-May-19 02:33N 40°24' E 022°49'7013.9
2016-May-18 21:32N 39°40' E 023°59'1514.6
2016-May-18 20:32N 39°33' E 024°16'  
2016-May-15 13:33N 39°36' E 025°47'6414.6
2016-May-15 09:07N 40°25' E 026°42'4414.1
2016-May-15 06:00N 40°42' E 027°36'   200 / 171008.0 5.4 1.022.015.8
Track history (hours):
 
Tides and Currents Weather Stations Pressure Air Temp Water Temp Dewpoint Dewpoint Depression Visibility Wind Speed Wind Dir Waves Ship Positions

Ital Oriente

Last reported at 2016-May-24 08:33 UTC. Time now 2016-May-26 14:32 UTC.
Position N 40°36' E 022°56'.

Length 222 m; draft 8.1 m.

Type: Cargo ship. MMSI: 636091278.

Date/timePositionNaut miles runAvg speedWind from/ knotsBaromVisibWave heightAir tempDewpointWater temp
2016-May-24 08:33N 40°36' E 022°56'1 1.3
2016-May-24 07:33N 40°35' E 022°55'1010.3
2016-May-24 06:34N 40°27' E 022°47'916.1
2016-May-24 06:00N 40°18' E 022°48'818.3 320 / 101010.0 5.4 0.519.017.5
2016-May-24 05:33N 40°15' E 022°58'3917.8
2016-May-24 03:21N 39°52' E 023°39'1519.1
2016-May-24 02:33N 39°51' E 023°59'2418.7
2016-May-24 01:15N 39°48' E 024°30'1318.5
2016-May-24 00:34N 39°46' E 024°47'189 5.9
2016-May-22 16:21N 40°53' E 028°39'25314.8
2016-May-21 23:13N 37°59' E 024°40'1219.0
2016-May-21 22:34N 37°51' E 024°28'1918.4
2016-May-21 21:33N 37°38' E 024°11'1616.7
2016-May-21 20:34N 37°37' E 023°50'1717.3
2016-May-21 19:33N 37°51' E 023°36'7 6.8
2016-May-21 18:33N 37°57' E 023°35'0 0.0
2016-May-21 17:33N 37°57' E 023°35'0 0.0
2016-May-21 16:33N 37°57' E 023°35'0 0.0
2016-May-21 15:33N 37°57' E 023°35'0 0.0
2016-May-21 14:33N 37°57' E 023°35'0 0.0
2016-May-21 13:33N 37°57' E 023°35'0 0.0
2016-May-21 12:33N 37°57' E 023°35'0 0.0
2016-May-21 11:33N 37°57' E 023°35'0 0.0
2016-May-21 10:33N 37°57' E 023°35'0 0.0
2016-May-21 09:33N 37°57' E 023°35'0 0.0
2016-May-21 08:33N 37°57' E 023°35'0 0.0
2016-May-21 07:33N 37°57' E 023°35'0 0.0
2016-May-21 06:33N 37°57' E 023°35'0 0.0
2016-May-21 05:33N 37°57' E 023°35'0 0.0
2016-May-21 04:33N 37°57' E 023°35'0 0.0
2016-May-21 03:33N 37°57' E 023°35'0 0.0
2016-May-21 02:33N 37°57' E 023°35'0 0.0
2016-May-21 01:33N 37°57' E 023°35'0 0.0
2016-May-21 00:33N 37°57' E 023°35'0 0.0
2016-May-20 23:33N 37°57' E 023°35'0 0.0
2016-May-20 22:33N 37°57' E 023°35'0 0.0
2016-May-20 21:33N 37°57' E 023°35'0 0.0
2016-May-20 20:33N 37°57' E 023°35'0 0.1
2016-May-20 19:34N 37°57' E 023°35'7 7.3
2016-May-20 18:33N 37°51' E 023°40'915.9
2016-May-20 18:00N 37°42' E 023°42'817.4 160 / 151013.0 5.4 1.020.316.919.2
2016-May-20 17:33N 37°38' E 023°50'1915.7
2016-May-20 16:21N 37°41' E 024°14'1519.5
2016-May-20 15:33N 37°51' E 024°29'5615.7
2016-May-20 12:00N 38°42' E 024°00'12319.1 100 / 81014.0 2.2 20.515.819.2
2016-May-20 05:33N 40°32' E 022°50'7 6.2
2016-May-20 04:26N 40°38' E 022°54'0 0.0
2016-May-20 03:26N 40°38' E 022°54'0 0.0
2016-May-20 02:26N 40°38' E 022°54'0 0.0
2016-May-20 01:29N 40°38' E 022°54'0 0.0
2016-May-20 00:29N 40°38' E 022°54'0 0.0
2016-May-19 23:29N 40°38' E 022°54'0 0.0
2016-May-19 22:32N 40°38' E 022°54'0 0.0
2016-May-19 21:32N 40°38' E 022°54'0 0.0
2016-May-19 20:32N 40°38' E 022°54'0 0.0
2016-May-19 19:32N 40°38' E 022°54'0 0.0
2016-May-19 18:32N 40°38' E 022°54'0 0.0
2016-May-19 17:32N 40°38' E 022°54'0 0.0
2016-May-19 16:32N 40°38' E 022°54'0 0.0
2016-May-19 15:23N 40°38' E 022°54'0 0.0
2016-May-19 14:20N 40°38' E 022°54'0 0.0
2016-May-19 13:26N 40°38' E 022°54'0 0.0
2016-May-19 12:26N 40°38' E 022°54'0 0.0
2016-May-19 11:29N 40°38' E 022°54'0 0.0
2016-May-19 10:29N 40°38' E 022°54'0 0.0
2016-May-19 09:29N 40°38' E 022°54'0 0.0
2016-May-19 08:32N 40°38' E 022°54'0 0.0
2016-May-19 07:32N 40°38' E 022°54'0 0.0
2016-May-19 06:32N 40°38' E 022°54'0 0.3
2016-May-19 05:32N 40°38' E 022°54'1 1.5
2016-May-19 04:33N 40°37' E 022°55'3 3.4
2016-May-19 03:33N 40°34' E 022°53'1110.7
2016-May-19 02:33N 40°24' E 022°49'7013.9
2016-May-18 21:32N 39°40' E 023°59'1514.6
2016-May-18 20:32N 39°33' E 024°16'  
2016-May-15 13:33N 39°36' E 025°47'6414.6
2016-May-15 09:07N 40°25' E 026°42'4414.1
2016-May-15 06:00N 40°42' E 027°36'   200 / 171008.0 5.4 1.022.015.8

Dump ship's entire track history